Time;durP1;ratioP1;P1;durP2;ratioP2;P2;SDS_P1;SDS_P2;PMS_P1;PMS_P2;Temp;Humidity;BMP_temperature;BMP_pressure;BME280_temperature;BME280_humidity;BME280_pressure;Samples;Min_cycle;Max_cycle;Signal;HPM_P1;HPM_P2
2022/04/24 00:02:13;;;;;;;27.00;14.53;;;10.30;90.80;;;;;;5044909;28;20215;-77
2022/04/24 00:04:40;;;;;;;28.67;14.80;;;10.30;90.60;;;;;;5026464;28;20982;-77
2022/04/24 00:07:09;;;;;;;33.07;16.33;;;10.40;90.30;;;;;;5021542;28;20759;-77
2022/04/24 00:09:37;;;;;;;30.80;15.63;;;10.40;90.10;;;;;;5017330;28;20514;-76
2022/04/24 00:12:04;;;;;;;32.93;16.97;;;10.40;90.00;;;;;;5020176;28;20418;-78
2022/04/24 00:14:30;;;;;;;32.77;16.50;;;10.40;90.00;;;;;;5016862;28;20424;-75
2022/04/24 00:16:56;;;;;;;35.90;18.30;;;10.40;90.00;;;;;;5020609;28;20800;-76
2022/04/24 00:19:22;;;;;;;32.70;16.93;;;10.40;90.20;;;;;;5020127;28;20279;-75
2022/04/24 00:21:47;;;;;;;33.03;16.90;;;10.30;90.20;;;;;;5014943;28;20201;-78
2022/04/24 00:24:13;;;;;;;28.40;14.80;;;10.40;90.40;;;;;;5014405;28;20177;-78
2022/04/24 00:26:39;;;;;;;28.07;16.23;;;10.60;90.40;;;;;;5016471;28;20263;-79
2022/04/24 00:29:05;;;;;;;32.67;16.20;;;10.60;89.60;;;;;;5018782;28;20514;-76
2022/04/24 00:31:31;;;;;;;32.60;16.30;;;10.70;89.50;;;;;;5019247;28;20460;-77
2022/04/24 00:33:57;;;;;;;27.13;15.07;;;10.70;89.50;;;;;;5017739;28;20189;-76
2022/04/24 00:36:23;;;;;;;28.03;15.40;;;10.70;89.30;;;;;;5017225;28;20436;-76
2022/04/24 00:38:48;;;;;;;30.43;16.23;;;10.80;89.20;;;;;;5021601;28;20449;-77
2022/04/24 00:41:14;;;;;;;29.40;15.53;;;10.80;89.00;;;;;;5013896;28;20220;-78
2022/04/24 00:43:40;;;;;;;31.47;17.70;;;10.90;88.70;;;;;;5014551;28;20656;-79
2022/04/24 00:46:28;;;;;;;30.53;15.93;;;10.90;88.40;;;;;;5013246;28;20669;-79
2022/04/24 00:48:54;;;;;;;32.27;16.17;;;10.80;88.40;;;;;;5018435;28;20585;-79
2022/04/24 00:51:19;;;;;;;32.33;16.70;;;10.80;88.60;;;;;;5015418;28;20501;-78
2022/04/24 00:53:45;;;;;;;25.40;14.57;;;10.80;88.90;;;;;;5020704;28;20189;-78
2022/04/24 00:56:11;;;;;;;29.33;14.17;;;10.80;88.60;;;;;;5023227;28;20592;-79
2022/04/24 00:58:37;;;;;;;35.03;15.60;;;11.00;88.60;;;;;;5019598;28;20209;-78
2022/04/24 01:01:02;;;;;;;27.67;14.47;;;11.00;88.10;;;;;;5023601;28;20188;-79
2022/04/24 01:03:28;;;;;;;28.00;14.17;;;11.00;88.00;;;;;;5023097;28;20523;-77
2022/04/24 01:05:55;;;;;;;22.67;13.57;;;11.00;87.70;;;;;;5015519;28;20234;-77
2022/04/24 01:08:21;;;;;;;31.57;16.60;;;11.00;87.60;;;;;;5009225;28;20979;-76
2022/04/24 01:10:47;;;;;;;29.90;15.53;;;11.00;87.40;;;;;;5012278;28;20425;-77
2022/04/24 01:13:12;;;;;;;29.93;15.60;;;11.00;87.60;;;;;;5013738;28;20182;-78
2022/04/24 01:15:38;;;;;;;31.07;15.60;;;11.00;87.80;;;;;;5014014;28;20186;-78
2022/04/24 01:18:05;;;;;;;26.73;14.87;;;11.00;87.70;;;;;;5015425;28;20592;-77
2022/04/24 01:20:30;;;;;;;30.90;15.67;;;11.00;87.60;;;;;;5013935;28;20197;-77
2022/04/24 01:22:56;;;;;;;32.27;13.87;;;11.00;87.60;;;;;;5014124;28;20432;-77
2022/04/24 01:25:22;;;;;;;28.10;15.33;;;10.90;87.80;;;;;;5020381;28;20298;-78
2022/04/24 01:27:48;;;;;;;26.17;13.77;;;10.90;87.80;;;;;;5014117;28;20209;-76
2022/04/24 01:30:13;;;;;;;25.83;15.17;;;10.90;88.00;;;;;;5021387;28;20556;-76
2022/04/24 01:32:39;;;;;;;26.40;15.73;;;10.90;88.10;;;;;;5014249;28;20185;-77
2022/04/24 01:35:07;;;;;;;30.70;15.63;;;10.90;88.10;;;;;;5014273;28;20193;-78
2022/04/24 01:37:33;;;;;;;29.37;15.57;;;11.00;88.40;;;;;;5016223;28;20289;-77
2022/04/24 01:39:59;;;;;;;29.77;15.80;;;11.00;88.10;;;;;;5016060;28;20416;-77
2022/04/24 01:42:25;;;;;;;27.67;15.10;;;11.00;87.80;;;;;;5026742;28;20438;-77
2022/04/24 01:44:51;;;;;;;24.57;14.93;;;11.10;87.40;;;;;;5019324;28;20425;-76
2022/04/24 01:47:16;;;;;;;31.37;15.90;;;11.10;87.40;;;;;;5018606;28;20640;-77
2022/04/24 01:49:42;;;;;;;28.70;15.93;;;11.10;87.30;;;;;;5018059;28;20214;-77
2022/04/24 01:52:09;;;;;;;32.10;17.90;;;11.00;87.40;;;;;;5015192;28;20558;-77
2022/04/24 01:54:35;;;;;;;33.07;15.97;;;10.90;87.80;;;;;;5015067;28;20492;-77
2022/04/24 01:57:01;;;;;;;30.57;16.50;;;10.90;88.40;;;;;;5013932;28;20550;-77
2022/04/24 01:59:27;;;;;;;31.03;16.23;;;11.00;88.00;;;;;;5021271;28;20428;-77
2022/04/24 02:01:52;;;;;;;25.47;15.13;;;11.00;87.80;;;;;;5018045;28;20435;-76
2022/04/24 02:04:22;;;;;;;27.03;15.60;;;11.00;87.70;;;;;;5015701;28;20660;-77
2022/04/24 02:06:49;;;;;;;32.10;15.30;;;11.00;87.70;;;;;;5019625;28;20208;-77
2022/04/24 02:09:15;;;;;;;32.40;16.30;;;11.00;88.00;;;;;;5016941;28;21067;-77
2022/04/24 02:11:41;;;;;;;32.33;16.73;;;11.10;87.60;;;;;;5021419;28;20519;-77
2022/04/24 02:14:07;;;;;;;31.83;16.27;;;10.90;87.70;;;;;;5014783;28;20859;-76
2022/04/24 02:16:33;;;;;;;28.70;15.97;;;10.90;88.60;;;;;;5021178;28;20214;-78
2022/04/24 02:18:58;;;;;;;28.30;15.23;;;11.10;88.70;;;;;;5014446;28;20210;-77
2022/04/24 02:21:25;;;;;;;25.43;13.80;;;11.20;88.60;;;;;;5015619;28;20212;-77
2022/04/24 02:23:51;;;;;;;28.40;14.73;;;11.20;88.00;;;;;;5008883;28;20571;-77
2022/04/24 02:26:17;;;;;;;29.47;15.47;;;11.20;87.70;;;;;;5018191;28;20425;-77
2022/04/24 02:28:43;;;;;;;32.07;17.03;;;11.20;87.70;;;;;;5018108;28;20650;-76
2022/04/24 02:31:09;;;;;;;32.10;16.83;;;11.20;87.70;;;;;;5015666;28;20653;-77
2022/04/24 02:33:34;;;;;;;30.30;16.73;;;11.20;87.60;;;;;;5012853;28;20636;-77
2022/04/24 02:36:00;;;;;;;35.10;17.60;;;11.10;87.60;;;;;;5015430;28;20186;-76
2022/04/24 02:38:26;;;;;;;29.40;15.70;;;11.10;88.00;;;;;;5022163;28;20544;-78
2022/04/24 02:40:52;;;;;;;37.23;18.53;;;11.00;88.90;;;;;;5011264;28;20186;-78
2022/04/24 02:43:17;;;;;;;35.70;17.80;;;10.80;89.60;;;;;;5022939;28;20209;-78
2022/04/24 02:45:43;;;;;;;32.93;16.60;;;10.80;90.30;;;;;;5021334;28;20197;-78
2022/04/24 02:48:09;;;;;;;32.13;17.33;;;10.70;90.70;;;;;;5013315;28;20333;-78
2022/04/24 02:50:35;;;;;;;33.00;17.10;;;10.60;91.10;;;;;;5013413;28;20425;-77
2022/04/24 02:53:01;;;;;;;32.37;16.30;;;10.60;91.40;;;;;;5014664;28;20504;-76
2022/04/24 02:55:27;;;;;;;31.83;18.10;;;10.60;91.50;;;;;;5019169;28;20618;-76
2022/04/24 02:57:53;;;;;;;30.10;16.27;;;10.70;91.80;;;;;;5016079;28;20273;-77
2022/04/24 03:00:22;;;;;;;32.50;15.83;;;10.70;91.90;;;;;;5018690;28;20409;-75
2022/04/24 03:02:49;;;;;;;33.40;17.43;;;10.80;92.10;;;;;;5012985;28;20421;-77
2022/04/24 03:05:24;;;;;;;30.37;16.23;;;10.80;92.00;;;;;;5014248;28;20421;-76
2022/04/24 03:07:51;;;;;;;36.83;16.60;;;10.90;92.10;;;;;;5011262;28;20460;-77
2022/04/24 03:10:17;;;;;;;31.63;17.23;;;10.90;92.20;;;;;;5014034;28;20564;-77
2022/04/24 03:12:43;;;;;;;31.90;16.43;;;10.90;92.10;;;;;;5013462;28;20428;-75
2022/04/24 03:15:12;;;;;;;34.00;16.17;;;10.90;92.30;;;;;;5012440;28;20515;-77
2022/04/24 03:17:38;;;;;;;31.20;15.77;;;10.90;92.60;;;;;;5012205;28;20503;-76
2022/04/24 03:20:06;;;;;;;32.27;16.03;;;10.80;92.50;;;;;;5014018;28;20841;-76
2022/04/24 03:22:33;;;;;;;33.17;16.50;;;10.80;92.80;;;;;;5017229;28;20431;-75
2022/04/24 03:25:00;;;;;;;36.27;16.97;;;10.80;93.00;;;;;;5034782;28;20460;-76
2022/04/24 03:27:26;;;;;;;30.90;15.80;;;10.70;93.20;;;;;;5026068;28;20472;-76
2022/04/24 03:29:52;;;;;;;37.40;17.40;;;10.70;93.40;;;;;;5031423;28;20475;-77
2022/04/24 03:32:18;;;;;;;36.57;17.97;;;10.60;93.60;;;;;;5021391;28;20944;-77
2022/04/24 03:34:43;;;;;;;35.70;17.83;;;10.70;93.90;;;;;;5011608;28;20209;-76
2022/04/24 03:37:09;;;;;;;36.47;18.63;;;10.60;94.00;;;;;;5016746;28;20673;-76
2022/04/24 03:39:36;;;;;;;38.90;19.83;;;10.60;94.10;;;;;;5016252;28;20707;-77
2022/04/24 03:42:06;;;;;;;34.50;17.57;;;10.60;94.10;;;;;;5018183;28;20612;-78
2022/04/24 03:44:33;;;;;;;38.73;19.13;;;10.60;94.00;;;;;;5020947;28;20463;-77
2022/04/24 03:46:59;;;;;;;34.67;18.57;;;10.60;94.00;;;;;;5016093;28;20432;-77
2022/04/24 03:49:26;;;;;;;43.10;18.73;;;10.60;93.80;;;;;;5024520;28;20463;-77
2022/04/24 03:51:52;;;;;;;33.90;17.53;;;10.60;93.80;;;;;;5015615;28;20471;-77
2022/04/24 03:54:18;;;;;;;36.70;18.17;;;10.70;93.70;;;;;;5026782;28;21101;-78
2022/04/24 03:56:44;;;;;;;35.23;18.13;;;10.70;93.50;;;;;;5020539;28;20428;-79
2022/04/24 03:59:10;;;;;;;36.17;20.10;;;10.80;93.40;;;;;;5023247;28;20202;-77
2022/04/24 04:01:35;;;;;;;44.97;21.10;;;10.70;93.40;;;;;;5018872;28;20228;-78
2022/04/24 04:04:01;;;;;;;38.77;19.63;;;10.60;93.70;;;;;;5021890;28;20254;-79
2022/04/24 04:06:27;;;;;;;45.80;21.30;;;10.60;94.00;;;;;;5018282;28;20213;-77
2022/04/24 04:08:53;;;;;;;43.43;20.70;;;10.50;94.30;;;;;;5023571;28;20492;-76
2022/04/24 04:11:19;;;;;;;32.80;17.80;;;10.50;94.50;;;;;;5015388;28;20174;-77
2022/04/24 04:13:45;;;;;;;38.87;19.33;;;10.60;94.60;;;;;;5026269;28;20424;-76
2022/04/24 04:16:11;;;;;;;42.23;18.90;;;10.50;94.50;;;;;;5022864;28;20186;-77
2022/04/24 04:18:36;;;;;;;39.70;18.60;;;10.50;94.60;;;;;;5018775;28;20214;-78
2022/04/24 04:21:02;;;;;;;38.27;18.63;;;10.50;94.70;;;;;;5016967;28;20214;-78
2022/04/24 04:23:28;;;;;;;43.93;20.90;;;10.50;94.70;;;;;;5017724;28;20197;-76
2022/04/24 04:25:53;;;;;;;44.80;21.73;;;10.50;94.80;;;;;;5018562;28;20190;-77
2022/04/24 04:28:19;;;;;;;37.00;19.20;;;10.40;94.90;;;;;;5012101;28;20213;-76
2022/04/24 04:30:45;;;;;;;43.37;19.80;;;10.40;95.10;;;;;;5015032;28;20177;-77
2022/04/24 04:33:10;;;;;;;48.83;20.63;;;10.40;95.30;;;;;;5018591;28;20186;-78
2022/04/24 04:35:37;;;;;;;36.63;19.07;;;10.40;95.50;;;;;;5015981;28;20236;-78
2022/04/24 04:38:02;;;;;;;48.57;21.97;;;10.30;95.80;;;;;;5026940;28;20201;-77
2022/04/24 04:40:30;;;;;;;49.53;23.77;;;10.30;96.10;;;;;;5031091;28;20464;-76
2022/04/24 04:42:57;;;;;;;35.93;16.93;;;10.10;96.60;;;;;;5029475;28;20425;-78
2022/04/24 04:45:24;;;;;;;17.53;8.80;;;9.90;96.40;;;;;;5031489;28;20419;-75
2022/04/24 04:47:51;;;;;;;19.80;9.20;;;9.50;95.60;;;;;;5028742;28;20432;-73
2022/04/24 04:50:18;;;;;;;11.33;6.07;;;9.20;95.50;;;;;;5023055;28;20433;-74
2022/04/24 04:52:44;;;;;;;14.30;6.17;;;9.00;95.80;;;;;;5018665;28;20786;-74
2022/04/24 04:55:10;;;;;;;9.10;4.53;;;9.00;96.00;;;;;;5031011;28;20426;-73
2022/04/24 04:57:36;;;;;;;6.20;3.43;;;8.80;96.20;;;;;;5024424;28;20436;-74
2022/04/24 05:00:07;;;;;;;9.27;3.50;;;8.80;96.50;;;;;;5022885;28;20912;-74
2022/04/24 05:02:39;;;;;;;4.33;2.10;;;8.70;96.50;;;;;;5024961;28;20528;-75
2022/04/24 05:05:07;;;;;;;2.10;1.30;;;8.60;96.50;;;;;;5015832;28;20986;-76
2022/04/24 05:07:33;;;;;;;1.97;1.10;;;8.50;96.40;;;;;;5026804;28;20457;-76
2022/04/24 05:09:58;;;;;;;1.43;1.07;;;8.40;96.30;;;;;;5025124;28;21038;-76
2022/04/24 05:12:28;;;;;;;2.43;1.37;;;8.40;96.40;;;;;;5023887;28;20178;-77
2022/04/24 05:15:02;;;;;;;1.37;1.10;;;8.30;96.70;;;;;;5016397;28;20178;-78
2022/04/24 05:17:28;;;;;;;2.17;0.73;;;8.30;96.70;;;;;;5024036;28;20954;-75
2022/04/24 05:19:55;;;;;;;0.80;0.60;;;8.20;96.30;;;;;;5025968;28;20427;-75
2022/04/24 05:22:21;;;;;;;1.63;0.70;;;8.20;96.10;;;;;;5020384;28;20456;-74
2022/04/24 05:24:47;;;;;;;1.90;0.80;;;8.20;96.40;;;;;;5027112;28;20897;-75
2022/04/24 05:27:13;;;;;;;1.77;1.07;;;8.10;96.80;;;;;;5021087;28;20540;-75
2022/04/24 05:29:39;;;;;;;3.53;0.77;;;8.00;96.70;;;;;;5020925;28;20496;-77
2022/04/24 05:32:05;;;;;;;1.10;0.60;;;8.00;96.60;;;;;;5017074;28;20182;-74
2022/04/24 05:34:31;;;;;;;0.70;0.50;;;7.90;96.80;;;;;;5022255;28;20259;-76
2022/04/24 05:36:56;;;;;;;1.93;0.60;;;7.90;96.90;;;;;;5022256;28;20956;-75
2022/04/24 05:39:22;;;;;;;4.20;0.63;;;7.90;97.00;;;;;;5024451;28;20436;-74
2022/04/24 05:41:48;;;;;;;1.07;0.50;;;7.80;97.00;;;;;;5019403;28;20193;-76
2022/04/24 05:44:14;;;;;;;1.70;0.50;;;7.80;97.30;;;;;;5019055;28;20239;-75
2022/04/24 05:46:39;;;;;;;1.40;0.50;;;7.80;97.40;;;;;;5013682;28;20190;-77
2022/04/24 05:49:05;;;;;;;0.97;0.50;;;7.80;97.40;;;;;;5020840;28;20291;-77
2022/04/24 05:51:31;;;;;;;3.30;0.57;;;7.70;97.50;;;;;;5014060;28;20194;-77
2022/04/24 05:53:56;;;;;;;2.93;0.60;;;7.70;97.50;;;;;;5015733;28;20186;-77
2022/04/24 05:56:22;;;;;;;1.37;0.60;;;7.70;97.50;;;;;;5013286;28;20676;-76
2022/04/24 05:58:48;;;;;;;1.00;0.50;;;7.70;97.30;;;;;;5016631;28;20209;-78
2022/04/24 06:01:14;;;;;;;2.13;0.60;;;7.70;97.40;;;;;;5020232;28;20186;-76
2022/04/24 06:03:42;;;;;;;0.90;0.60;;;7.60;97.60;;;;;;5015312;28;20679;-76
2022/04/24 06:06:08;;;;;;;1.07;0.50;;;7.60;97.90;;;;;;5018232;28;20202;-76
2022/04/24 06:08:34;;;;;;;1.80;0.63;;;7.60;97.80;;;;;;5019336;28;20480;-76
2022/04/24 06:11:00;;;;;;;0.73;0.57;;;7.60;98.00;;;;;;5013407;28;20435;-76
2022/04/24 06:13:26;;;;;;;0.80;0.60;;;7.60;98.20;;;;;;5009300;28;20190;-78
2022/04/24 06:15:57;;;;;;;0.90;0.67;;;7.60;98.00;;;;;;5011388;28;20216;-75
2022/04/24 06:18:25;;;;;;;1.60;0.50;;;7.60;98.10;;;;;;5021368;28;20452;-78
2022/04/24 06:20:51;;;;;;;1.07;0.50;;;7.60;98.00;;;;;;5016321;28;20484;-77
2022/04/24 06:23:17;;;;;;;1.00;0.47;;;7.60;98.10;;;;;;5023937;28;20441;-77
2022/04/24 06:25:43;;;;;;;0.70;0.47;;;7.50;98.00;;;;;;5032175;28;20443;-76
2022/04/24 06:28:08;;;;;;;5.53;0.70;;;7.60;98.00;;;;;;5024631;28;20471;-77
2022/04/24 06:30:40;;;;;;;1.20;0.60;;;7.60;98.10;;;;;;5016696;28;20288;-76
2022/04/24 06:33:10;;;;;;;1.10;0.50;;;7.60;98.10;;;;;;5019984;28;20486;-76
2022/04/24 06:35:37;;;;;;;4.60;0.70;;;7.60;98.00;;;;;;5013352;28;20421;-76
2022/04/24 06:38:04;;;;;;;0.67;0.50;;;7.60;97.80;;;;;;5014374;28;20830;-77
2022/04/24 06:40:31;;;;;;;0.90;0.50;;;7.60;97.90;;;;;;5012304;28;20942;-76
2022/04/24 06:42:59;;;;;;;0.87;0.70;;;7.60;97.90;;;;;;5016025;28;20782;-76
2022/04/24 06:45:30;;;;;;;0.97;0.60;;;7.60;97.70;;;;;;5019092;28;20447;-76
2022/04/24 06:47:57;;;;;;;1.07;0.60;;;7.70;97.80;;;;;;5019986;28;20985;-76
2022/04/24 06:50:24;;;;;;;1.27;0.60;;;7.70;98.00;;;;;;5007333;28;20991;-75
2022/04/24 06:53:05;;;;;;;1.47;0.70;;;7.70;97.90;;;;;;5015786;28;20448;-74
2022/04/24 06:55:33;;;;;;;0.97;0.60;;;7.70;97.80;;;;;;5012105;28;20430;-74
2022/04/24 06:58:00;;;;;;;1.23;0.60;;;7.80;97.90;;;;;;5014010;28;20899;-74
2022/04/24 07:00:27;;;;;;;1.17;0.60;;;7.80;98.00;;;;;;5005560;28;20425;-73
2022/04/24 07:02:53;;;;;;;0.90;0.70;;;7.90;97.90;;;;;;5016298;28;20413;-72
2022/04/24 07:05:26;;;;;;;2.90;1.20;;;7.90;97.80;;;;;;5010665;28;20412;-73
2022/04/24 07:07:52;;;;;;;1.13;0.80;;;7.90;97.70;;;;;;5018487;28;20304;-71
2022/04/24 07:10:18;;;;;;;0.90;0.60;;;7.90;97.70;;;;;;5019250;28;21098;-75
2022/04/24 07:12:51;;;;;;;2.30;0.80;;;7.90;97.70;;;;;;5017869;28;20849;-75
2022/04/24 07:15:19;;;;;;;0.90;0.60;;;8.00;97.60;;;;;;5018366;28;20439;-73
2022/04/24 07:17:45;;;;;;;0.60;0.50;;;7.90;97.70;;;;;;5017779;28;20577;-74
2022/04/24 07:20:13;;;;;;;1.10;0.50;;;7.90;97.70;;;;;;5013313;28;20920;-74
2022/04/24 07:22:48;;;;;;;1.40;0.60;;;7.90;97.50;;;;;;5019007;28;20440;-74
2022/04/24 07:25:19;;;;;;;1.00;0.70;;;8.00;97.70;;;;;;5005275;28;20596;-75
2022/04/24 07:27:45;;;;;;;0.70;0.50;;;8.00;97.60;;;;;;5015684;28;20550;-74
2022/04/24 07:30:16;;;;;;;0.70;0.47;;;8.00;97.70;;;;;;5015957;28;20483;-74
2022/04/24 07:32:43;;;;;;;1.80;0.50;;;7.90;97.60;;;;;;5014819;28;20425;-74
2022/04/24 07:35:20;;;;;;;0.77;0.60;;;8.00;97.70;;;;;;5010835;28;20479;-75
2022/04/24 07:37:46;;;;;;;3.13;0.50;;;8.00;97.90;;;;;;5010534;28;20538;-74
2022/04/24 07:40:14;;;;;;;1.90;0.53;;;8.00;97.70;;;;;;5014633;28;20506;-75
2022/04/24 07:43:00;;;;;;;1.00;0.67;;;8.00;97.60;;;;;;5021960;28;20428;-75
2022/04/24 07:45:38;;;;;;;1.73;1.00;;;8.00;97.70;;;;;;5014703;28;20837;-74
2022/04/24 07:48:06;;;;;;;1.10;0.80;;;8.00;97.70;;;;;;5014563;28;21029;-74
2022/04/24 07:50:43;;;;;;;1.00;0.50;;;8.00;97.60;;;;;;5015124;28;20839;-73
2022/04/24 07:53:10;;;;;;;1.90;0.73;;;8.00;97.60;;;;;;5015281;28;20443;-75
2022/04/24 07:55:36;;;;;;;2.53;1.43;;;8.10;97.60;;;;;;5015495;28;20424;-74
2022/04/24 07:58:03;;;;;;;1.43;1.00;;;8.10;97.70;;;;;;5011111;28;20519;-73
2022/04/24 08:00:30;;;;;;;1.20;0.70;;;8.10;97.60;;;;;;5011850;28;21014;-74
2022/04/24 08:03:03;;;;;;;1.90;0.90;;;8.10;97.50;;;;;;5015075;28;20436;-75
2022/04/24 08:05:39;;;;;;;1.10;0.70;;;8.10;97.50;;;;;;5010100;28;20464;-75
2022/04/24 08:08:10;;;;;;;1.03;0.70;;;8.20;97.60;;;;;;5010328;28;20460;-74
2022/04/24 08:10:39;;;;;;;1.43;0.60;;;8.10;97.50;;;;;;5010632;28;20516;-74
2022/04/24 08:13:05;;;;;;;0.70;0.50;;;8.10;97.60;;;;;;5012466;28;20938;-74
2022/04/24 08:15:34;;;;;;;1.10;0.63;;;8.20;97.70;;;;;;5013200;28;20428;-75
2022/04/24 08:18:01;;;;;;;1.80;0.70;;;8.20;97.80;;;;;;5012696;28;20563;-73
2022/04/24 08:20:27;;;;;;;2.57;1.30;;;8.20;97.90;;;;;;5013819;28;20417;-75
2022/04/24 08:22:55;;;;;;;4.43;0.80;;;8.30;98.10;;;;;;5015351;28;20507;-73
2022/04/24 08:25:23;;;;;;;1.60;0.60;;;8.40;98.10;;;;;;5015206;28;20431;-75
2022/04/24 08:27:50;;;;;;;0.77;0.67;;;8.30;98.00;;;;;;5017969;28;20498;-75
2022/04/24 08:30:18;;;;;;;2.33;1.00;;;8.30;98.00;;;;;;5032352;28;20834;-74
2022/04/24 08:32:44;;;;;;;1.97;0.90;;;8.30;98.10;;;;;;5020136;28;20915;-75
2022/04/24 08:35:12;;;;;;;1.10;0.90;;;8.40;98.20;;;;;;5017128;28;20478;-75
2022/04/24 08:37:39;;;;;;;1.60;0.80;;;8.50;98.20;;;;;;5020972;28;20440;-74
2022/04/24 08:40:07;;;;;;;1.83;1.07;;;8.40;98.20;;;;;;5021476;28;20529;-75
2022/04/24 08:42:33;;;;;;;1.40;0.90;;;8.40;98.20;;;;;;5022431;28;20434;-74
2022/04/24 08:45:00;;;;;;;3.50;0.90;;;8.50;98.20;;;;;;5017280;28;20429;-75
2022/04/24 08:47:26;;;;;;;0.93;0.87;;;8.60;98.10;;;;;;5017083;28;20444;-74
2022/04/24 08:50:00;;;;;;;1.47;0.70;;;8.60;98.10;;;;;;5019819;28;20472;-74
2022/04/24 08:52:29;;;;;;;1.90;0.80;;;8.60;97.80;;;;;;5011907;28;20456;-76
2022/04/24 08:54:57;;;;;;;1.00;0.80;;;8.60;97.60;;;;;;5007110;28;20858;-76
2022/04/24 08:57:26;;;;;;;1.17;0.80;;;8.60;97.50;;;;;;5012095;28;20433;-75
2022/04/24 08:59:55;;;;;;;1.70;1.07;;;8.60;97.40;;;;;;5014725;28;20500;-75
2022/04/24 09:02:21;;;;;;;0.90;0.67;;;8.60;97.30;;;;;;5020995;28;20442;-75
2022/04/24 09:04:47;;;;;;;0.80;0.67;;;8.70;97.40;;;;;;5012322;28;20875;-74
2022/04/24 09:07:17;;;;;;;1.63;1.07;;;8.70;97.20;;;;;;5012972;28;20828;-75
2022/04/24 09:09:45;;;;;;;1.33;0.90;;;8.70;97.10;;;;;;5011515;28;21161;-75
2022/04/24 09:12:17;;;;;;;1.77;0.90;;;8.80;96.90;;;;;;5010721;28;20479;-76
2022/04/24 09:14:50;;;;;;;1.40;0.90;;;8.80;96.70;;;;;;5014150;28;20432;-76
2022/04/24 09:17:17;;;;;;;3.57;1.20;;;8.80;96.70;;;;;;5004976;28;20981;-75
2022/04/24 09:19:43;;;;;;;1.30;0.80;;;8.90;96.50;;;;;;5013669;28;20421;-75
2022/04/24 09:22:10;;;;;;;1.90;1.10;;;8.80;96.40;;;;;;5013078;28;20799;-75
2022/04/24 09:24:42;;;;;;;1.40;0.90;;;8.90;96.50;;;;;;5011707;28;20428;-74
2022/04/24 09:27:09;;;;;;;1.10;0.80;;;8.90;96.50;;;;;;5014435;28;20412;-75
2022/04/24 09:29:36;;;;;;;2.03;1.10;;;8.80;96.40;;;;;;5020076;28;20464;-74
2022/04/24 09:32:12;;;;;;;1.10;0.87;;;8.90;96.60;;;;;;5012971;28;20417;-75
2022/04/24 09:34:38;;;;;;;1.30;0.87;;;8.90;96.60;;;;;;5020921;28;20427;-74
2022/04/24 09:37:09;;;;;;;1.60;0.90;;;8.90;96.70;;;;;;5038722;28;20484;-76
2022/04/24 09:39:36;;;;;;;1.73;1.10;;;8.90;96.70;;;;;;5032969;28;20436;-75
2022/04/24 09:42:07;;;;;;;1.70;1.20;;;8.90;96.80;;;;;;5031288;28;20512;-75
2022/04/24 09:44:52;;;;;;;2.60;1.00;;;8.90;97.00;;;;;;5017172;28;20428;-75
2022/04/24 09:47:26;;;;;;;1.67;1.37;;;9.00;97.20;;;;;;5024519;28;20453;-75
2022/04/24 09:49:53;;;;;;;3.10;1.23;;;9.00;97.30;;;;;;5012666;28;20475;-75
2022/04/24 09:52:23;;;;;;;1.30;1.23;;;9.00;97.40;;;;;;5015104;28;20424;-76
2022/04/24 09:54:54;;;;;;;2.63;1.37;;;9.00;97.40;;;;;;5011066;28;20429;-75
2022/04/24 09:57:23;;;;;;;2.53;1.50;;;9.00;97.30;;;;;;5012020;28;20448;-75
2022/04/24 09:59:53;;;;;;;2.80;1.30;;;9.00;97.20;;;;;;5010482;28;21009;-75
2022/04/24 10:02:20;;;;;;;3.13;1.50;;;9.10;97.40;;;;;;5012321;28;20503;-74
2022/04/24 10:04:47;;;;;;;3.53;1.43;;;9.20;97.50;;;;;;5011464;28;21113;-76
2022/04/24 10:07:19;;;;;;;4.67;1.50;;;9.10;97.50;;;;;;5013489;28;20449;-76
2022/04/24 10:09:46;;;;;;;5.07;1.73;;;9.10;97.50;;;;;;5012315;28;20464;-76
2022/04/24 10:12:20;;;;;;;4.37;1.90;;;9.10;97.50;;;;;;5013382;28;20440;-76
2022/04/24 10:15:00;;;;;;;1.90;1.20;;;9.20;97.70;;;;;;5018576;28;20965;-76
2022/04/24 10:17:58;;;;;;;3.67;1.30;;;9.20;97.70;;;;;;5014436;28;20468;-74
2022/04/24 10:20:30;;;;;;;2.87;1.50;;;9.20;97.50;;;;;;5018018;28;20441;-75
2022/04/24 10:22:58;;;;;;;1.40;1.30;;;9.20;97.50;;;;;;5021512;28;20531;-76
2022/04/24 10:25:42;;;;;;;2.67;1.40;;;9.10;97.50;;;;;;5025816;28;20436;-75
2022/04/24 10:28:11;;;;;;;3.40;1.67;;;9.20;97.60;;;;;;5025837;28;20453;-75
2022/04/24 10:30:36;;;;;;;2.73;1.40;;;9.20;97.70;;;;;;5028204;28;20439;-75
2022/04/24 10:33:15;;;;;;;2.30;1.60;;;9.20;97.60;;;;;;5019514;28;20503;-78
2022/04/24 10:36:23;;;;;;;2.63;2.03;;;9.20;97.70;;;;;;5018853;28;20235;-76
2022/04/24 10:38:57;;;;;;;2.53;1.77;;;9.30;97.80;;;;;;4992422;28;20454;-75
2022/04/24 10:41:25;;;;;;;3.67;1.67;;;9.30;97.80;;;;;;4991806;28;20435;-76
2022/04/24 10:43:58;;;;;;;5.53;2.00;;;9.30;97.70;;;;;;4990288;28;20425;-74
2022/04/24 10:46:27;;;;;;;2.50;1.47;;;9.30;97.50;;;;;;4980797;28;20429;-76
2022/04/24 10:49:05;;;;;;;3.13;1.70;;;9.30;97.40;;;;;;4990680;28;20469;-75
2022/04/24 10:51:32;;;;;;;5.27;1.97;;;9.40;97.60;;;;;;4998103;28;20436;-74
2022/04/24 10:54:16;;;;;;;2.27;1.77;;;9.50;97.70;;;;;;4984674;28;20428;-76
2022/04/24 10:56:51;;;;;;;1.37;1.10;;;9.50;97.70;;;;;;4995491;28;20430;-75
2022/04/24 10:59:21;;;;;;;1.83;1.23;;;9.40;97.10;;;;;;4998450;28;20517;-75
2022/04/24 11:01:52;;;;;;;2.47;1.37;;;9.30;96.90;;;;;;4991615;28;20452;-74
2022/04/24 11:04:19;;;;;;;1.53;1.10;;;9.30;96.90;;;;;;4997274;28;20437;-75
2022/04/24 11:07:05;;;;;;;3.60;1.40;;;9.30;97.20;;;;;;4993128;28;20473;-76
2022/04/24 11:09:38;;;;;;;2.67;1.20;;;9.20;97.40;;;;;;4978373;28;20511;-74
2022/04/24 11:12:06;;;;;;;4.60;1.97;;;9.30;97.50;;;;;;4999944;28;20427;-75
2022/04/24 11:14:34;;;;;;;2.50;1.60;;;9.30;97.50;;;;;;5021573;28;20428;-75
2022/04/24 11:17:01;;;;;;;4.13;1.80;;;9.30;97.50;;;;;;5022991;28;20455;-75
2022/04/24 11:19:32;;;;;;;2.60;1.30;;;9.30;97.50;;;;;;5015557;28;20558;-76
2022/04/24 11:22:01;;;;;;;1.60;1.23;;;9.30;97.50;;;;;;5017187;28;20488;-74
2022/04/24 11:24:30;;;;;;;2.00;1.00;;;9.30;97.10;;;;;;5014928;28;20420;-75
2022/04/24 11:27:01;;;;;;;2.90;1.47;;;9.30;96.70;;;;;;5017076;28;20425;-75
2022/04/24 11:29:26;;;;;;;2.80;1.87;;;9.30;96.80;;;;;;5016824;28;20463;-75
2022/04/24 11:31:54;;;;;;;2.97;1.00;;;9.40;96.80;;;;;;5018563;28;20409;-74
2022/04/24 11:34:22;;;;;;;2.03;0.93;;;9.40;96.80;;;;;;5010344;28;20531;-74
2022/04/24 11:36:50;;;;;;;2.77;1.50;;;9.50;96.40;;;;;;5010124;28;20431;-74
2022/04/24 11:39:18;;;;;;;2.03;1.30;;;9.50;96.30;;;;;;5016124;28;20799;-77
2022/04/24 11:41:46;;;;;;;2.10;1.00;;;9.60;96.30;;;;;;5011857;28;20800;-77
2022/04/24 11:50:14;;;;;;;1.30;1.03;;;9.60;96.30;;;;;;5014351;28;20518;-76
2022/04/24 11:52:46;;;;;;;2.67;1.10;;;9.60;96.60;;;;;;5018251;28;20840;-76
2022/04/24 11:55:19;;;;;;;3.23;1.43;;;9.70;96.50;;;;;;5018761;28;20902;-75
2022/04/24 11:57:56;;;;;;;1.97;1.37;;;9.70;96.30;;;;;;5014487;28;20916;-77
2022/04/24 12:00:34;;;;;;;1.77;1.20;;;9.60;96.20;;;;;;5020943;28;20500;-76
2022/04/24 12:03:00;;;;;;;1.73;1.10;;;9.70;96.10;;;;;;5011795;28;20424;-77
2022/04/24 12:05:29;;;;;;;1.80;1.10;;;9.70;96.10;;;;;;5030325;28;20427;-75
2022/04/24 12:07:56;;;;;;;1.47;1.00;;;9.70;96.00;;;;;;5022098;28;20462;-77
2022/04/24 12:10:26;;;;;;;2.67;1.30;;;9.70;95.90;;;;;;5015844;28;20460;-75
2022/04/24 12:12:53;;;;;;;3.03;1.30;;;9.80;96.10;;;;;;5025274;28;20459;-76
2022/04/24 12:15:22;;;;;;;1.50;1.20;;;9.90;95.90;;;;;;5027803;28;20455;-74
2022/04/24 12:17:58;;;;;;;2.87;1.40;;;9.90;96.00;;;;;;5020448;28;20524;-75
2022/04/24 12:20:38;;;;;;;2.37;1.00;;;9.90;95.90;;;;;;5010673;28;20432;-74
2022/04/24 12:23:11;;;;;;;2.23;1.40;;;9.80;95.60;;;;;;5010539;28;20454;-76
2022/04/24 12:25:51;;;;;;;1.73;1.33;;;9.90;96.10;;;;;;5010357;28;20437;-76
2022/04/24 12:28:39;;;;;;;4.00;1.70;;;9.90;96.20;;;;;;5028142;28;20435;-77
2022/04/24 12:31:06;;;;;;;1.53;1.00;;;9.90;96.10;;;;;;5017121;28;20471;-77
2022/04/24 12:33:44;;;;;;;1.30;1.00;;;9.90;96.10;;;;;;5014276;28;20502;-76
2022/04/24 12:36:15;;;;;;;2.23;1.73;;;9.90;95.90;;;;;;5018292;28;20416;-75
2022/04/24 12:38:52;;;;;;;2.63;1.10;;;9.90;95.90;;;;;;5013587;28;20548;-74
2022/04/24 12:41:23;;;;;;;2.00;1.23;;;10.00;95.70;;;;;;5013843;28;20430;-73
2022/04/24 12:43:49;;;;;;;2.10;1.00;;;10.00;95.30;;;;;;5015003;28;20439;-74
2022/04/24 12:46:15;;;;;;;1.23;1.00;;;10.10;95.20;;;;;;5025848;28;20421;-77
2022/04/24 12:48:53;;;;;;;1.63;1.10;;;10.10;94.80;;;;;;5030571;28;20634;-73
2022/04/24 12:51:26;;;;;;;1.57;0.93;;;10.20;94.70;;;;;;5031994;28;20259;-74
2022/04/24 12:54:00;;;;;;;1.80;1.20;;;10.20;93.30;;;;;;5032596;28;20472;-76
2022/04/24 12:56:27;;;;;;;1.03;0.80;;;10.20;93.40;;;;;;5027388;28;20416;-74
2022/04/24 12:58:53;;;;;;;2.47;0.90;;;10.20;93.00;;;;;;5030688;28;20444;-73